createdAt,value
2023-02-11T00:02:36.987Z,31.53
2023-02-11T00:06:11.228Z,26.15
2023-02-11T00:09:43.173Z,17.27
2023-02-11T00:13:15.246Z,32.03
2023-02-11T00:16:47.141Z,32.17
2023-02-11T00:20:20.203Z,32.00
2023-02-11T00:23:57.237Z,24.03
2023-02-11T00:27:29.381Z,39.42
2023-02-11T00:31:02.718Z,31.33
2023-02-11T00:34:36.563Z,32.03
2023-02-11T00:38:08.362Z,31.97
2023-02-11T00:41:40.490Z,22.67
2023-02-11T00:45:12.653Z,26.02
2023-02-11T00:48:44.789Z,23.33
2023-02-11T00:52:17.826Z,26.63
2023-02-11T00:55:50.487Z,20.80
2023-02-11T00:59:22.509Z,21.70
2023-02-11T01:02:55.339Z,17.60
2023-02-11T01:06:27.409Z,23.35
2023-02-11T01:09:59.731Z,26.30
2023-02-11T01:13:33.417Z,28.53
2023-02-11T01:17:06.312Z,35.45
2023-02-11T01:20:38.246Z,32.72
2023-02-11T01:24:10.274Z,27.77
2023-02-11T01:27:42.373Z,29.95
2023-02-11T01:31:15.178Z,38.33
2023-02-11T01:34:47.042Z,28.13
2023-02-11T01:38:22.474Z,31.92
2023-02-11T01:41:54.809Z,35.75
2023-02-11T01:45:47.218Z,37.88
2023-02-11T01:49:28.831Z,28.93
2023-02-11T01:53:23.074Z,27.38
2023-02-11T01:57:17.416Z,31.27
2023-02-11T02:00:50.421Z,21.90
2023-02-11T02:04:27.307Z,38.15
2023-02-11T02:08:21.301Z,30.88
2023-02-11T02:11:53.173Z,27.30
2023-02-11T02:15:32.018Z,25.00
2023-02-11T02:19:18.788Z,28.35
2023-02-11T02:22:59.784Z,30.83
2023-02-11T02:27:08.998Z,35.57
2023-02-11T02:31:05.388Z,23.58
2023-02-11T02:34:50.868Z,41.00
2023-02-11T02:38:48.913Z,34.37
2023-02-11T02:42:21.576Z,26.98
2023-02-11T02:45:54.032Z,36.88
2023-02-11T02:49:25.991Z,25.97
2023-02-11T02:53:10.777Z,34.72
2023-02-11T02:56:48.423Z,38.78
2023-02-11T03:00:35.841Z,29.88
2023-02-11T03:04:16.526Z,28.67
2023-02-11T03:08:02.614Z,33.03
2023-02-11T03:11:37.187Z,35.60
2023-02-11T03:15:11.418Z,31.40
2023-02-11T03:18:49.943Z,28.52
2023-02-11T03:22:37.266Z,24.50
2023-02-11T03:26:34.517Z,29.83
2023-02-11T03:30:16.384Z,23.63
2023-02-11T03:34:02.385Z,34.95
2023-02-11T03:37:40.974Z,25.63
2023-02-11T03:41:16.265Z,41.77
2023-02-11T03:44:53.908Z,26.33
2023-02-11T03:48:31.168Z,33.22
2023-02-11T03:52:06.087Z,28.73
2023-02-11T03:55:40.368Z,31.08
2023-02-11T03:59:12.494Z,27.83
2023-02-11T04:02:45.051Z,22.67
2023-02-11T04:06:17.128Z,26.23
2023-02-11T04:09:49.145Z,29.20
2023-02-11T04:13:21.316Z,25.67
2023-02-11T04:16:53.076Z,29.77
2023-02-11T04:20:25.143Z,33.65
2023-02-11T04:23:56.956Z,27.38
2023-02-11T04:27:28.993Z,24.80
2023-02-11T04:31:00.806Z,32.95
2023-02-11T04:34:33.466Z,38.20
2023-02-11T04:38:05.243Z,39.03
2023-02-11T04:41:37.335Z,24.30
2023-02-11T04:45:09.659Z,34.97
2023-02-11T04:48:41.904Z,44.25
2023-02-11T04:52:13.908Z,33.03
2023-02-11T04:55:49.483Z,26.63
2023-02-11T04:59:22.059Z,35.20
2023-02-11T05:02:54.580Z,22.50
2023-02-11T05:06:27.955Z,39.95
2023-02-11T05:10:02.979Z,39.53
2023-02-11T05:13:34.845Z,32.13
2023-02-11T05:17:07.019Z,34.58
2023-02-11T05:20:39.404Z,30.50
2023-02-11T05:24:11.650Z,40.13
2023-02-11T05:27:43.562Z,34.10
2023-02-11T05:31:16.818Z,35.95
2023-02-11T05:34:48.797Z,36.67
2023-02-11T05:38:21.012Z,33.27
2023-02-11T05:41:52.828Z,33.80
2023-02-11T05:45:24.988Z,36.38
2023-02-11T05:48:56.893Z,31.33
2023-02-11T05:52:28.974Z,26.92
2023-02-11T05:56:01.317Z,33.40
2023-02-11T05:59:33.483Z,32.65
2023-02-11T06:03:05.814Z,37.77
2023-02-11T06:06:37.941Z,34.90
2023-02-11T06:10:10.951Z,37.70
2023-02-11T06:13:43.248Z,37.87
2023-02-11T06:17:15.771Z,33.17
2023-02-11T06:20:48.383Z,25.40
2023-02-11T06:24:36.434Z,46.10
2023-02-11T06:28:12.578Z,43.65
2023-02-11T06:31:44.638Z,40.83
2023-02-11T06:35:17.177Z,41.08
2023-02-11T06:38:49.409Z,53.77
2023-02-11T06:42:21.933Z,40.55
2023-02-11T06:45:54.520Z,37.30
2023-02-11T06:49:26.617Z,49.87
2023-02-11T06:53:01.693Z,37.25
2023-02-11T06:56:34.189Z,36.63
2023-02-11T07:00:06.777Z,33.87
2023-02-11T07:03:41.209Z,41.83
2023-02-11T07:07:13.000Z,40.08
2023-02-11T07:10:45.196Z,39.80
2023-02-11T07:14:17.237Z,40.77
2023-02-11T07:17:49.723Z,47.45
2023-02-11T07:21:22.721Z,51.22
2023-02-11T07:24:54.760Z,43.23
2023-02-11T07:28:26.638Z,38.35
2023-02-11T07:31:59.009Z,44.70
2023-02-11T07:35:30.975Z,48.60
2023-02-11T07:39:03.142Z,42.47
2023-02-11T07:42:35.641Z,36.42
2023-02-11T07:46:27.815Z,37.53
2023-02-11T07:50:00.372Z,38.20
2023-02-11T07:53:32.170Z,43.95
2023-02-11T07:57:05.010Z,49.20
2023-02-11T08:00:37.387Z,55.10
2023-02-11T08:04:09.252Z,54.10
2023-02-11T08:07:41.772Z,53.78
2023-02-11T08:11:19.190Z,51.77
2023-02-11T08:14:51.507Z,38.83
2023-02-11T08:18:23.257Z,50.83
2023-02-11T08:21:57.187Z,35.75
2023-02-11T08:25:29.256Z,45.90
2023-02-11T08:29:02.715Z,39.53
2023-02-11T08:32:35.477Z,44.88
2023-02-11T08:36:12.201Z,47.60
2023-02-11T08:39:44.540Z,39.53
2023-02-11T08:43:16.756Z,50.75
2023-02-11T08:46:49.377Z,40.90
2023-02-11T08:50:21.850Z,39.67
2023-02-11T08:53:54.726Z,39.00
2023-02-11T08:57:26.837Z,50.55
2023-02-11T09:00:58.999Z,41.20
2023-02-11T09:04:31.256Z,41.58
2023-02-11T09:08:03.327Z,50.17
2023-02-11T09:11:36.481Z,50.77
2023-02-11T09:15:09.013Z,47.40
2023-02-11T09:18:41.035Z,37.22
2023-02-11T09:22:12.849Z,43.23
2023-02-11T09:25:44.987Z,46.95
2023-02-11T09:29:16.863Z,47.40
2023-02-11T09:32:48.934Z,37.45
2023-02-11T09:36:26.084Z,48.30
2023-02-11T09:39:59.281Z,49.58
2023-02-11T09:43:46.671Z,52.17
2023-02-11T09:47:32.715Z,36.70
2023-02-11T09:51:05.900Z,32.55
2023-02-11T09:54:49.450Z,42.60
2023-02-11T09:58:42.624Z,40.13
2023-02-11T10:02:45.068Z,34.47
2023-02-11T10:06:44.226Z,35.45
2023-02-11T10:10:32.990Z,35.03
2023-02-11T10:14:28.539Z,30.50
2023-02-11T10:18:45.672Z,32.60
2023-02-11T10:22:23.200Z,40.47
2023-02-11T10:25:57.576Z,38.77
2023-02-11T10:29:40.363Z,37.95
2023-02-11T10:33:18.247Z,51.50
2023-02-11T10:36:50.453Z,40.33
2023-02-11T10:40:25.955Z,39.05
2023-02-11T10:44:00.952Z,39.40
2023-02-11T10:47:38.020Z,41.10
2023-02-11T10:51:14.638Z,37.00
2023-02-11T10:55:24.349Z,44.17
2023-02-11T10:59:07.594Z,33.50
2023-02-11T11:02:44.178Z,34.63
2023-02-11T11:06:27.869Z,33.83
2023-02-11T11:10:08.537Z,42.38
2023-02-11T11:13:58.244Z,30.70
2023-02-11T11:17:30.241Z,35.55
2023-02-11T11:21:07.817Z,43.22
2023-02-11T11:24:39.562Z,33.03
2023-02-11T11:28:24.346Z,42.90
2023-02-11T11:32:04.706Z,31.77
2023-02-11T11:35:37.152Z,35.47
2023-02-11T11:39:35.654Z,47.30
2023-02-11T11:43:13.402Z,39.70
2023-02-11T11:46:47.964Z,19.02
2023-02-11T11:50:35.550Z,33.37
2023-02-11T11:54:13.536Z,37.65
2023-02-11T11:57:45.861Z,31.20
2023-02-11T12:01:39.278Z,43.15
2023-02-11T12:05:26.150Z,39.57
2023-02-11T12:09:04.179Z,34.97
2023-02-11T12:12:46.904Z,42.40
2023-02-11T12:16:54.186Z,47.87
2023-02-11T12:21:01.603Z,33.25
2023-02-11T12:24:42.653Z,37.50
2023-02-11T12:28:41.623Z,42.10
2023-02-11T12:32:22.684Z,45.60
2023-02-11T12:35:55.090Z,42.95
2023-02-11T12:39:37.477Z,38.88
2023-02-11T12:43:23.863Z,31.83
2023-02-11T12:47:23.520Z,38.83
2023-02-11T12:51:23.375Z,27.13
2023-02-11T12:55:02.830Z,44.20
2023-02-11T12:58:44.878Z,38.70
2023-02-11T13:02:29.723Z,36.22
2023-02-11T13:06:11.888Z,35.73
2023-02-11T13:09:55.547Z,23.48
2023-02-11T13:13:27.522Z,30.70
2023-02-11T13:16:59.851Z,34.95
2023-02-11T13:20:41.539Z,36.80
2023-02-11T13:24:44.641Z,35.95
2023-02-11T13:28:36.745Z,33.30
2023-02-11T13:32:14.873Z,25.63
2023-02-11T13:36:09.765Z,29.20
2023-02-11T13:39:41.836Z,27.98
2023-02-11T13:43:22.950Z,31.23
2023-02-11T13:47:00.225Z,30.70
2023-02-11T13:50:39.930Z,28.90
2023-02-11T13:54:26.254Z,20.42
2023-02-11T13:58:07.121Z,28.13
2023-02-11T14:02:14.063Z,31.45
2023-02-11T14:06:27.594Z,30.30
2023-02-11T14:10:00.123Z,30.27
2023-02-11T14:13:57.924Z,30.27
2023-02-11T14:17:32.382Z,31.38
2023-02-11T14:21:27.928Z,27.33
2023-02-11T14:25:05.393Z,28.85
2023-02-11T14:28:39.044Z,28.58
2023-02-11T14:32:23.479Z,30.15
2023-02-11T14:36:23.130Z,25.23
2023-02-11T14:40:05.259Z,27.52
2023-02-11T14:44:03.640Z,28.90
2023-02-11T14:47:47.197Z,30.93
2023-02-11T14:51:27.032Z,31.17
2023-02-11T14:55:14.730Z,31.02
2023-02-11T14:58:49.093Z,36.70
2023-02-11T15:02:28.037Z,30.70
2023-02-11T15:06:04.203Z,33.20
2023-02-11T15:09:46.309Z,34.10
2023-02-11T15:13:27.208Z,25.70
2023-02-11T15:17:03.474Z,24.20
2023-02-11T15:20:36.092Z,28.17
2023-02-11T15:24:28.796Z,30.87
2023-02-11T15:28:01.576Z,31.90
2023-02-11T15:31:35.157Z,29.15
2023-02-11T15:35:09.837Z,25.90
2023-02-11T15:38:41.680Z,24.83
2023-02-11T15:42:31.424Z,27.92
2023-02-11T15:46:08.959Z,29.40
2023-02-11T15:49:45.597Z,29.83
2023-02-11T15:53:26.056Z,24.25
2023-02-11T15:57:05.098Z,27.08
2023-02-11T16:00:46.349Z,25.23
2023-02-11T16:04:20.805Z,22.63
2023-02-11T16:07:53.261Z,22.70
2023-02-11T16:11:34.249Z,21.43
2023-02-11T16:15:28.832Z,22.15
2023-02-11T16:19:05.234Z,30.70
2023-02-11T16:22:39.891Z,23.20
2023-02-11T16:26:28.980Z,22.67
2023-02-11T16:30:01.359Z,27.90
2023-02-11T16:33:33.179Z,23.83
2023-02-11T16:37:06.191Z,29.13
2023-02-11T16:40:38.077Z,23.90
2023-02-11T16:44:10.190Z,26.25
2023-02-11T16:47:43.298Z,29.63
2023-02-11T16:51:15.543Z,24.35
2023-02-11T16:54:47.528Z,26.08
2023-02-11T16:58:23.584Z,27.48
2023-02-11T17:01:55.574Z,27.70
2023-02-11T17:05:27.859Z,34.95
2023-02-11T17:08:59.896Z,27.35
2023-02-11T17:12:32.135Z,28.40
2023-02-11T17:16:04.094Z,30.50
2023-02-11T17:19:36.306Z,32.20
2023-02-11T17:23:08.344Z,30.80
2023-02-11T17:26:41.834Z,25.02
2023-02-11T17:30:14.278Z,24.92
2023-02-11T17:33:47.632Z,32.10
2023-02-11T17:37:19.557Z,31.60
2023-02-11T17:40:59.561Z,27.70
2023-02-11T17:44:31.655Z,26.35
2023-02-11T17:48:04.157Z,29.27
2023-02-11T17:51:38.498Z,29.65
2023-02-11T17:55:10.599Z,29.00
2023-02-11T17:58:42.512Z,31.73
2023-02-11T18:02:15.773Z,30.33
2023-02-11T18:05:47.779Z,26.83
2023-02-11T18:09:20.088Z,30.08
2023-02-11T18:12:52.592Z,30.27
2023-02-11T18:16:27.667Z,24.63
2023-02-11T18:19:59.831Z,24.00
2023-02-11T18:23:31.692Z,29.63
2023-02-11T18:27:03.895Z,31.00
2023-02-11T18:30:35.899Z,24.33
2023-02-11T18:34:11.281Z,28.40
2023-02-11T18:37:43.180Z,31.60
2023-02-11T18:41:15.458Z,23.10
2023-02-11T18:44:47.406Z,24.25
2023-02-11T18:48:20.548Z,21.60
2023-02-11T18:51:52.348Z,22.77
2023-02-11T18:55:26.045Z,20.02
2023-02-11T18:58:58.658Z,20.90
2023-02-11T19:02:30.704Z,21.55
2023-02-11T19:06:02.768Z,23.65
2023-02-11T19:09:36.031Z,18.20
2023-02-11T19:13:08.048Z,26.25
2023-02-11T19:16:42.442Z,24.58
2023-02-11T19:20:14.640Z,21.40
2023-02-11T19:23:46.741Z,26.67
2023-02-11T19:27:18.832Z,21.67
2023-02-11T19:30:51.130Z,22.30
2023-02-11T19:34:23.076Z,16.80
2023-02-11T19:37:55.382Z,22.63
2023-02-11T19:41:27.929Z,21.77
2023-02-11T19:45:00.179Z,21.47
2023-02-11T19:48:32.584Z,21.50
2023-02-11T19:52:05.057Z,21.17
2023-02-11T19:55:37.220Z,20.60
2023-02-11T19:59:09.135Z,17.37
2023-02-11T20:02:41.707Z,17.65
2023-02-11T20:06:17.207Z,21.25
2023-02-11T20:09:49.713Z,27.10
2023-02-11T20:13:22.187Z,26.48
2023-02-11T20:16:53.991Z,25.20
2023-02-11T20:20:26.869Z,26.73
2023-02-11T20:23:59.404Z,22.38
2023-02-11T20:27:33.421Z,22.65
2023-02-11T20:31:05.975Z,23.27
2023-02-11T20:34:39.708Z,24.63
2023-02-11T20:38:11.801Z,19.10
2023-02-11T20:41:46.860Z,24.05
2023-02-11T20:45:19.088Z,28.17
2023-02-11T20:48:52.257Z,24.15
2023-02-11T20:52:24.391Z,24.20
2023-02-11T20:55:56.522Z,23.50
2023-02-11T20:59:28.413Z,21.65
2023-02-11T21:03:01.309Z,22.65
2023-02-11T21:06:37.620Z,21.85
2023-02-11T21:10:09.956Z,19.40
2023-02-11T21:13:43.497Z,19.05
2023-02-11T21:17:15.667Z,23.23
2023-02-11T21:20:48.135Z,19.87
2023-02-11T21:24:20.242Z,18.00
2023-02-11T21:27:52.366Z,19.67
2023-02-11T21:31:29.718Z,22.60
2023-02-11T21:35:02.453Z,23.30
2023-02-11T21:38:34.823Z,25.08
2023-02-11T21:42:06.854Z,17.30
2023-02-11T21:45:46.692Z,36.73
2023-02-11T21:49:20.898Z,34.67
2023-02-11T21:52:53.249Z,42.17
2023-02-11T21:56:29.042Z,34.93
2023-02-11T22:00:01.106Z,51.80
2023-02-11T22:03:33.007Z,40.00
2023-02-11T22:07:05.090Z,41.13
2023-02-11T22:10:37.250Z,23.30
2023-02-11T22:14:09.118Z,24.80
2023-02-11T22:17:41.226Z,24.02
2023-02-11T22:21:17.312Z,28.77
2023-02-11T22:24:49.510Z,21.38
2023-02-11T22:28:22.074Z,20.83
2023-02-11T22:31:54.154Z,13.77
2023-02-11T22:35:26.368Z,13.70
2023-02-11T22:39:08.342Z,16.83
2023-02-11T22:42:40.416Z,23.57
2023-02-11T22:46:15.691Z,19.58
2023-02-11T22:49:48.100Z,18.73
2023-02-11T22:53:20.286Z,15.75
2023-02-11T22:56:52.555Z,18.13
2023-02-11T23:00:26.646Z,19.65
2023-02-11T23:04:03.609Z,18.95
2023-02-11T23:07:35.787Z,16.87
2023-02-11T23:11:10.937Z,20.77
2023-02-11T23:14:43.007Z,18.42
2023-02-11T23:18:15.272Z,16.10
2023-02-11T23:21:51.110Z,21.17
2023-02-11T23:25:23.163Z,22.40
2023-02-11T23:28:55.506Z,15.50
2023-02-11T23:32:27.888Z,20.73
2023-02-11T23:36:00.753Z,19.02
2023-02-11T23:39:33.019Z,27.48
2023-02-11T23:43:05.167Z,23.10
2023-02-11T23:46:37.021Z,21.52
2023-02-11T23:50:10.007Z,20.42
2023-02-11T23:53:43.068Z,26.67
2023-02-11T23:57:16.028Z,20.10
